Val-David, Canada
Current Conditions -  °F | °C
As of 12:00 AM on Sunday 21 Dec 2014 (Local Time) from CYMX Reporting Station
Haze Haze  
Wind Chill: 10°   Ceiling: 200
Heat Index: 10°   Visibility: 1mi
Dew Point:   Wind: 3mph
Humidity: 85%   Direction: 60°ENE
Pressure: 30.35"   Gusts: NA
Location:  46.03°N, 74.2°W
Report Text: CYMX 210500Z 06003KT 010V100 1SM R06/P6000FT/N BR OVC002 M12/M14 A3035 RMK FG5SF3 SLP285
Loading
Personal Weather Stations






























Interactive Weather Map New forecast layout! Learn more

10-Day Weather Forecast

Advertisements
Track Severe Weather on mobile